createdAt,value
2022-10-28T09:51:51.023Z,13.03
2022-10-28T10:20:20.689Z,14.12
2022-10-28T10:22:49.375Z,14.21
2022-10-28T10:33:06.199Z,14.61
2022-10-28T10:35:37.872Z,14.69
2022-10-28T12:02:37.439Z,17.28
2022-10-28T12:17:01.644Z,17.50
2022-10-28T12:42:38.608Z,18.00
2022-10-28T12:53:16.863Z,18.16
2022-10-28T12:55:58.244Z,18.21
2022-10-28T12:58:34.349Z,18.26
2022-10-28T13:01:14.300Z,18.31
2022-10-28T13:04:43.253Z,18.38
2022-10-28T13:07:54.830Z,18.43
2022-10-28T13:10:30.397Z,18.48
2022-10-28T13:13:26.522Z,18.51
2022-10-28T13:16:08.505Z,18.53
2022-10-28T13:19:10.570Z,18.53
2022-10-28T13:21:55.899Z,18.54
2022-10-28T13:24:37.531Z,18.55
2022-10-28T13:27:06.109Z,18.57
2022-10-28T13:29:34.967Z,18.59
2022-10-28T13:32:03.275Z,18.62
2022-10-28T13:34:39.373Z,18.64
2022-10-28T13:37:18.156Z,18.67
2022-10-28T13:39:47.144Z,18.69
2022-10-28T13:42:13.756Z,18.71
2022-10-28T13:45:02.653Z,18.72
2022-10-28T13:47:37.310Z,18.74
2022-10-28T13:50:07.878Z,18.74
2022-10-28T13:52:39.722Z,18.76
2022-10-28T13:55:28.195Z,18.76
2022-10-28T13:58:05.174Z,18.76
2022-10-28T14:00:31.872Z,18.74
2022-10-28T14:03:01.448Z,18.73
2022-10-28T14:05:37.796Z,18.73
2022-10-28T14:08:08.474Z,18.73
2022-10-28T14:10:40.019Z,18.69
2022-10-28T14:13:22.573Z,18.63
2022-10-28T14:15:50.728Z,18.58
2022-10-28T14:21:04.421Z,18.53
2022-10-28T14:23:33.997Z,18.49
2022-10-28T14:26:05.275Z,18.46
2022-10-28T14:28:32.131Z,18.42
2022-10-28T14:31:14.786Z,18.37
2022-10-28T14:33:44.523Z,18.32
2022-10-28T14:36:17.426Z,18.27
2022-10-28T14:38:53.233Z,18.22
2022-10-28T14:42:14.229Z,18.16
2022-10-28T14:45:06.959Z,18.09
2022-10-28T14:48:07.804Z,18.04
2022-10-28T14:50:44.152Z,17.99
2022-10-28T14:53:26.484Z,17.96
2022-10-28T14:56:18.689Z,17.95
2022-10-28T14:58:47.792Z,17.93
2022-10-28T15:01:17.794Z,17.91
2022-10-28T15:03:48.058Z,17.90
2022-10-28T15:06:41.138Z,17.88
2022-10-28T15:09:41.261Z,17.85
2022-10-28T15:12:11.410Z,17.84
2022-10-28T15:14:45.844Z,17.82
2022-10-28T15:17:24.385Z,17.81
2022-10-28T15:19:54.523Z,17.79
2022-10-28T15:22:31.339Z,17.75
2022-10-28T15:25:06.259Z,17.71
2022-10-28T15:27:35.139Z,17.68
2022-10-28T15:30:03.162Z,17.65
2022-10-28T15:32:34.360Z,17.63
2022-10-28T15:35:26.890Z,17.61
2022-10-28T15:37:55.205Z,17.58
2022-10-28T15:40:28.606Z,17.54
2022-10-28T15:43:01.275Z,17.52
2022-10-28T15:45:41.277Z,17.49
2022-10-28T15:48:14.839Z,17.45
2022-10-28T15:50:41.877Z,17.41
2022-10-28T15:53:11.539Z,17.36
2022-10-28T15:56:02.799Z,17.32
2022-10-28T15:58:38.450Z,17.26
2022-10-28T16:01:10.969Z,17.22
2022-10-28T16:03:42.438Z,17.17
2022-10-28T16:06:29.260Z,17.12
2022-10-28T16:09:06.691Z,17.08
2022-10-28T16:11:36.715Z,17.02
2022-10-28T16:14:19.529Z,16.97
2022-10-28T16:16:46.616Z,16.92
2022-10-28T16:19:38.244Z,16.87
2022-10-28T16:22:05.639Z,16.82
2022-10-28T16:24:32.284Z,16.77
2022-10-28T16:27:16.396Z,16.73
2022-10-28T16:29:43.062Z,16.68
2022-10-28T16:32:14.071Z,16.63
2022-10-28T16:34:41.333Z,16.58
2022-10-28T16:37:19.162Z,16.54
2022-10-28T16:39:48.099Z,16.51
2022-10-28T16:42:15.858Z,16.46
2022-10-28T16:44:42.724Z,16.43
2022-10-28T16:47:15.370Z,16.40
2022-10-28T16:49:42.695Z,16.36
2022-10-28T16:52:16.749Z,16.30
2022-10-28T16:54:43.529Z,16.24
2022-10-28T16:57:10.170Z,16.18
2022-10-28T16:59:36.906Z,16.14
2022-10-28T17:02:04.272Z,16.07
2022-10-28T17:04:31.091Z,16.02
2022-10-28T17:06:57.795Z,15.98
2022-10-28T17:09:24.516Z,15.95
2022-10-28T17:11:51.214Z,15.92
2022-10-28T17:14:17.881Z,15.89
2022-10-28T17:16:44.544Z,15.86
2022-10-28T17:19:11.413Z,15.82
2022-10-28T17:21:38.226Z,15.79
2022-10-28T17:24:05.203Z,15.76
2022-10-28T17:26:32.049Z,15.73
2022-10-28T17:28:58.886Z,15.71
2022-10-28T17:31:25.795Z,15.67
2022-10-28T17:33:55.857Z,15.64
2022-10-28T17:36:23.387Z,15.59
2022-10-28T17:38:50.072Z,15.54
2022-10-28T17:41:16.894Z,15.48
2022-10-28T17:43:43.556Z,15.42
2022-10-28T17:46:10.208Z,15.38
2022-10-28T17:48:37.045Z,15.36
2022-10-28T17:51:03.959Z,15.34
2022-10-28T17:53:30.674Z,15.33
2022-10-28T17:56:02.602Z,15.32
2022-10-28T17:58:29.918Z,15.31
2022-10-28T18:00:58.316Z,15.30
2022-10-28T18:03:25.454Z,15.28
2022-10-28T18:05:52.248Z,15.27
2022-10-28T18:08:20.805Z,15.24
2022-10-28T18:10:55.066Z,15.23
2022-10-28T18:13:35.616Z,15.20
2022-10-28T18:16:07.102Z,15.18
2022-10-28T18:18:38.991Z,15.14
2022-10-28T18:21:08.994Z,15.09
2022-10-28T18:23:35.727Z,15.04
2022-10-28T18:26:05.315Z,15.01
2022-10-28T18:28:34.239Z,14.97
2022-10-28T18:31:05.657Z,14.93
2022-10-28T18:33:33.517Z,14.88
2022-10-28T18:36:01.700Z,14.83
2022-10-28T18:38:28.386Z,14.82
2022-10-28T18:40:55.070Z,14.81
2022-10-28T18:43:23.052Z,14.80
2022-10-28T18:45:50.541Z,14.78
2022-10-28T18:48:17.731Z,14.76
2022-10-28T18:50:54.362Z,14.74
2022-10-28T18:53:21.891Z,14.70
2022-10-28T18:55:48.539Z,14.67
2022-10-28T18:58:15.415Z,14.63
2022-10-28T19:00:42.361Z,14.62
2022-10-28T19:03:19.631Z,14.62
2022-10-28T19:05:46.357Z,14.62
2022-10-28T19:08:13.582Z,14.63
2022-10-28T19:10:40.292Z,14.63
2022-10-28T19:13:07.087Z,14.63
2022-10-28T19:15:39.245Z,14.61
2022-10-28T19:18:05.967Z,14.61
2022-10-28T19:20:32.613Z,14.60
2022-10-28T19:22:59.515Z,14.57
2022-10-28T19:25:26.440Z,14.54
2022-10-28T19:27:53.066Z,14.49
2022-10-28T19:30:19.689Z,14.46
2022-10-28T19:32:46.490Z,14.42
2022-10-28T19:35:13.222Z,14.38
2022-10-28T19:37:39.870Z,14.33
2022-10-28T19:40:07.649Z,14.28
2022-10-28T19:42:34.303Z,14.24
2022-10-28T19:45:01.448Z,14.20
2022-10-28T19:47:28.123Z,14.16
2022-10-28T19:49:54.771Z,14.13
2022-10-28T19:52:21.375Z,14.10
2022-10-28T19:54:48.055Z,14.05
2022-10-28T19:57:14.747Z,14.04
2022-10-28T19:59:41.459Z,14.02
2022-10-28T20:02:10.556Z,13.99
2022-10-28T20:04:37.230Z,13.94
2022-10-28T20:07:03.850Z,13.90
2022-10-28T20:09:30.519Z,13.88
2022-10-28T20:11:57.178Z,13.85
2022-10-28T20:14:24.456Z,13.82
2022-10-28T20:16:51.235Z,13.78
2022-10-28T20:19:17.819Z,13.76
2022-10-28T20:21:45.229Z,13.74
2022-10-28T20:24:11.952Z,13.71
2022-10-28T20:26:39.119Z,13.70
2022-10-28T20:29:08.762Z,13.66
2022-10-28T20:31:36.059Z,13.62
2022-10-28T20:34:04.333Z,13.59
2022-10-28T20:36:33.637Z,13.57
2022-10-28T20:39:02.476Z,13.55
2022-10-28T20:41:32.791Z,13.54
2022-10-28T20:44:00.332Z,13.51
2022-10-28T20:46:27.280Z,13.48
2022-10-28T20:48:54.395Z,13.47
2022-10-28T20:51:22.356Z,13.46
2022-10-28T20:53:49.505Z,13.44
2022-10-28T20:56:27.947Z,13.43
2022-10-28T20:58:55.965Z,13.43
2022-10-28T21:01:28.483Z,13.42
2022-10-28T21:03:59.803Z,13.42
2022-10-28T21:06:27.845Z,13.41
2022-10-28T21:08:54.870Z,13.40
2022-10-28T21:11:23.661Z,13.38
2022-10-28T21:13:52.684Z,13.36
2022-10-28T21:16:20.342Z,13.33
2022-10-28T21:18:47.428Z,13.30
2022-10-28T21:21:14.556Z,13.27
2022-10-28T21:23:41.261Z,13.23
2022-10-28T21:26:10.261Z,13.20
2022-10-28T21:28:37.215Z,13.18
2022-10-28T21:31:22.287Z,13.16
2022-10-28T21:36:19.846Z,13.08
2022-10-28T21:38:47.230Z,13.06
2022-10-28T21:41:22.538Z,13.04
2022-10-28T21:43:50.996Z,13.02
2022-10-28T21:46:19.248Z,13.00
2022-10-28T21:48:46.229Z,12.97
2022-10-28T21:51:15.275Z,12.94
2022-10-28T21:53:43.957Z,12.92
2022-10-28T21:56:18.004Z,12.89
2022-10-28T21:58:45.703Z,12.87
2022-10-28T22:01:13.822Z,12.84
2022-10-28T22:03:40.779Z,12.82
2022-10-28T22:06:08.017Z,12.80
2022-10-28T22:08:34.978Z,12.78
2022-10-28T22:11:17.094Z,12.75
2022-10-28T22:13:44.378Z,12.82
2022-10-28T22:16:14.972Z,12.85
2022-10-28T22:18:41.778Z,12.86
2022-10-28T22:21:14.073Z,12.84
2022-10-28T22:23:41.004Z,12.82
2022-10-28T22:26:10.731Z,12.80
2022-10-28T22:28:37.743Z,12.79
2022-10-28T22:31:07.481Z,12.77
2022-10-28T22:33:34.756Z,12.74
2022-10-28T22:36:10.434Z,12.72
2022-10-28T22:38:37.527Z,12.69
2022-10-28T22:41:13.074Z,12.65
2022-10-28T22:43:40.935Z,12.61
2022-10-28T22:46:08.672Z,12.57
2022-10-28T22:48:35.418Z,12.53
2022-10-28T22:51:02.271Z,12.49
2022-10-28T22:53:29.122Z,12.44
2022-10-28T22:55:57.142Z,12.40
2022-10-28T22:58:25.186Z,12.35
2022-10-28T23:00:52.010Z,12.32
2022-10-28T23:03:18.738Z,12.28
2022-10-28T23:05:45.712Z,12.25
2022-10-28T23:08:15.957Z,12.22
2022-10-28T23:10:42.732Z,12.19
2022-10-28T23:13:13.717Z,12.17
2022-10-28T23:15:40.426Z,12.14
2022-10-28T23:18:07.086Z,12.11
2022-10-28T23:20:35.645Z,12.07
2022-10-28T23:23:02.259Z,12.02
2022-10-28T23:25:28.835Z,11.98
2022-10-28T23:27:55.870Z,11.93
2022-10-28T23:30:22.744Z,11.88
2022-10-28T23:32:49.399Z,11.84
2022-10-28T23:35:16.290Z,11.81
2022-10-28T23:37:42.928Z,11.78
2022-10-28T23:42:36.905Z,11.71
2022-10-28T23:45:03.730Z,11.69
2022-10-28T23:47:30.369Z,11.65
2022-10-28T23:49:57.024Z,11.62
2022-10-28T23:52:23.691Z,11.60
2022-10-28T23:54:50.329Z,11.57
2022-10-28T23:57:17.017Z,11.55
2022-10-28T23:59:43.631Z,11.50
